Time;durP1;ratioP1;P1;durP2;ratioP2;P2;SDS_P1;SDS_P2;PMS_P1;PMS_P2;Temp;Humidity;BMP_temperature;BMP_pressure;BME280_temperature;BME280_humidity;BME280_pressure;Samples;Min_cycle;Max_cycle;Signal;HPM_P1;HPM_P2
2024/01/02 00:01:22;;;;;;;5.87;3.80;;;1.80;99.90;;;;;;6261974;28;20215;-70
2024/01/02 00:04:24;;;;;;;5.53;3.90;;;1.70;99.60;;;;;;6267925;28;20192;-70
2024/01/02 00:07:25;;;;;;;5.87;3.27;;;;;;;;;;6257144;28;20191;-70
2024/01/02 00:10:26;;;;;;;3.23;2.87;;;1.70;99.30;;;;;;6283042;28;20245;-70
2024/01/02 00:13:26;;;;;;;4.53;2.90;;;1.70;99.80;;;;;;6260743;28;20528;-70
2024/01/02 00:16:27;;;;;;;3.80;3.13;;;1.60;99.80;;;;;;6275680;28;20208;-70
2024/01/02 00:19:28;;;;;;;4.00;2.97;;;1.60;99.90;;;;;;6268410;28;20192;-70
2024/01/02 00:22:28;;;;;;;2.87;2.57;;;1.60;99.90;;;;;;6281696;28;20207;-70
2024/01/02 00:25:29;;;;;;;3.20;2.50;;;1.60;99.90;;;;;;6267211;28;20202;-70
2024/01/02 00:28:30;;;;;;;3.10;2.40;;;1.70;99.90;;;;;;6257123;28;20180;-70
2024/01/02 00:31:30;;;;;;;3.83;2.80;;;1.70;99.90;;;;;;6279917;28;20190;-70
2024/01/02 00:34:31;;;;;;;3.70;2.60;;;1.80;99.90;;;;;;6270098;28;20192;-70
2024/01/02 00:37:32;;;;;;;3.47;2.50;;;1.80;99.90;;;;;;6266090;28;20202;-70
2024/01/02 00:40:32;;;;;;;5.07;2.77;;;1.70;99.90;;;;;;6285030;28;20204;-70
2024/01/02 00:43:33;;;;;;;3.17;2.60;;;1.70;99.90;;;;;;6287126;28;20643;-70
2024/01/02 00:46:34;;;;;;;5.10;2.80;;;1.60;99.60;;;;;;6282737;28;20211;-70
2024/01/02 00:49:34;;;;;;;5.30;2.83;;;1.60;99.70;;;;;;6284802;28;20659;-70
2024/01/02 00:52:35;;;;;;;4.47;2.50;;;1.50;99.80;;;;;;6266848;28;20189;-70
2024/01/02 00:55:36;;;;;;;3.93;3.03;;;1.50;99.90;;;;;;6270166;28;20243;-70
2024/01/02 00:58:37;;;;;;;4.23;2.67;;;;;;;;;;6264098;28;20326;-70
2024/01/02 01:01:38;;;;;;;4.13;2.67;;;;;;;;;;6272513;28;20270;-70
2024/01/02 01:04:43;;;;;;;3.40;2.73;;;1.50;99.90;;;;;;6283013;28;20184;-70
2024/01/02 01:07:44;;;;;;;4.50;3.13;;;1.40;99.90;;;;;;6293519;28;20279;-70
2024/01/02 01:10:44;;;;;;;4.80;2.90;;;1.40;99.90;;;;;;6265735;28;20263;-70
2024/01/02 01:13:45;;;;;;;4.63;2.57;;;1.40;99.90;;;;;;6275475;28;20204;-70
2024/01/02 01:16:45;;;;;;;6.63;2.70;;;1.20;99.90;;;;;;6279065;28;20193;-70
2024/01/02 01:19:46;;;;;;;3.73;2.73;;;1.20;99.90;;;;;;6275973;28;20189;-70
2024/01/02 01:22:47;;;;;;;4.03;3.17;;;1.20;99.90;;;;;;6260305;28;20265;-70
2024/01/02 01:25:48;;;;;;;5.30;2.73;;;1.20;99.90;;;;;;6262804;28;20281;-70
2024/01/02 01:28:48;;;;;;;5.53;2.87;;;1.10;99.90;;;;;;6264295;28;20181;-70
2024/01/02 01:31:49;;;;;;;6.37;3.80;;;1.10;99.60;;;;;;6279827;28;20196;-70
2024/01/02 01:34:50;;;;;;;6.37;3.50;;;1.10;99.90;;;;;;6268246;28;20189;-70
2024/01/02 01:37:50;;;;;;;4.27;2.90;;;1.00;99.60;;;;;;6261370;28;20192;-70
2024/01/02 01:40:51;;;;;;;5.37;3.33;;;1.00;99.90;;;;;;6267597;28;20234;-70
2024/01/02 01:43:52;;;;;;;5.40;3.60;;;;;;;;;;6276838;28;20192;-70
2024/01/02 01:46:53;;;;;;;5.07;3.20;;;24.00;50.00;;;;;;6303964;28;20194;-70
2024/01/02 01:49:54;;;;;;;3.43;2.70;;;1.00;98.60;;;;;;6292852;28;20191;-70
2024/01/02 01:52:55;;;;;;;4.97;2.90;;;0.90;99.00;;;;;;6301765;28;20183;-70
2024/01/02 01:55:57;;;;;;;4.00;3.43;;;0.90;99.80;;;;;;6281658;28;20220;-70
2024/01/02 01:58:58;;;;;;;4.83;2.80;;;0.80;99.90;;;;;;6264185;28;20219;-70
2024/01/02 02:01:59;;;;;;;6.10;2.70;;;0.80;99.60;;;;;;6305477;28;20213;-70
2024/01/02 02:05:02;;;;;;;3.10;2.27;;;0.80;99.90;;;;;;6282217;28;20181;-70
2024/01/02 02:08:03;;;;;;;3.17;2.60;;;0.80;99.90;;;;;;6287726;28;20307;-70
2024/01/02 02:11:04;;;;;;;3.57;2.73;;;0.80;99.90;;;;;;6304965;28;20192;-70
2024/01/02 02:14:06;;;;;;;8.43;2.67;;;0.80;99.90;;;;;;6271454;28;20322;-70
2024/01/02 02:17:07;;;;;;;3.27;2.43;;;0.80;99.90;;;;;;6273694;28;20199;-70
2024/01/02 02:20:08;;;;;;;5.47;2.30;;;0.60;99.90;;;;;;6266935;28;20184;-70
2024/01/02 02:23:08;;;;;;;4.73;2.43;;;0.60;99.90;;;;;;6279455;28;20195;-70
2024/01/02 02:26:09;;;;;;;4.03;2.70;;;0.60;99.90;;;;;;6280337;28;20181;-70
2024/01/02 02:29:10;;;;;;;3.53;2.70;;;0.60;99.90;;;;;;6260346;28;20200;-70
2024/01/02 02:32:10;;;;;;;3.77;2.80;;;0.60;99.90;;;;;;6266867;28;20188;-70
2024/01/02 02:35:11;;;;;;;3.97;2.40;;;0.60;99.90;;;;;;6261938;28;20188;-70
2024/01/02 02:38:12;;;;;;;3.43;2.60;;;0.60;99.90;;;;;;6265731;28;20185;-70
2024/01/02 02:41:12;;;;;;;3.77;2.43;;;0.60;99.90;;;;;;6294753;28;20219;-70
2024/01/02 02:44:13;;;;;;;5.07;3.10;;;0.60;99.90;;;;;;6269567;28;20191;-70
2024/01/02 02:47:14;;;;;;;6.17;2.70;;;0.60;99.90;;;;;;6271043;28;20184;-70
2024/01/02 02:50:15;;;;;;;4.53;2.83;;;0.60;99.90;;;;;;6262013;28;20189;-71
2024/01/02 02:53:16;;;;;;;4.93;2.90;;;0.60;99.90;;;;;;6289284;28;20192;-70
2024/01/02 02:56:17;;;;;;;4.30;2.73;;;0.60;99.90;;;;;;6268543;28;20295;-70
2024/01/02 02:59:18;;;;;;;5.87;2.80;;;0.60;99.90;;;;;;6263173;28;20180;-70
2024/01/02 03:02:18;;;;;;;5.83;3.63;;;0.60;99.70;;;;;;6258791;28;20284;-70
2024/01/02 03:05:19;;;;;;;4.13;2.70;;;0.60;99.30;;;;;;6279114;28;20184;-70
2024/01/02 03:08:20;;;;;;;2.90;2.60;;;0.50;99.50;;;;;;6260167;28;20193;-70
2024/01/02 03:11:20;;;;;;;4.33;2.90;;;0.50;99.90;;;;;;6271592;28;20192;-70
2024/01/02 03:14:21;;;;;;;3.30;2.13;;;0.50;99.70;;;;;;6281157;28;20280;-70
2024/01/02 03:17:22;;;;;;;4.57;2.70;;;0.50;98.90;;;;;;6259549;28;20200;-70
2024/01/02 03:20:23;;;;;;;3.10;2.07;;;0.50;98.20;;;;;;6271983;28;20185;-70
2024/01/02 03:23:23;;;;;;;3.17;2.40;;;0.40;98.30;;;;;;6269281;28;20256;-70
2024/01/02 03:26:24;;;;;;;4.30;2.50;;;0.30;98.60;;;;;;6272240;28;20181;-70
2024/01/02 03:29:26;;;;;;;4.53;2.20;;;0.40;99.40;;;;;;6280519;28;20185;-70
2024/01/02 03:32:27;;;;;;;2.97;2.10;;;0.40;99.00;;;;;;6269384;28;20334;-70
2024/01/02 03:35:28;;;;;;;3.63;2.33;;;;;;;;;;6268084;28;20200;-70
2024/01/02 03:38:29;;;;;;;7.20;2.67;;;;;;;;;;6271237;28;20199;-70
2024/01/02 03:41:31;;;;;;;5.10;2.93;;;;;;;;;;6287879;28;20219;-70
2024/01/02 03:44:32;;;;;;;4.10;2.40;;;;;;;;;;6295912;28;20185;-70
2024/01/02 03:47:33;;;;;;;2.40;1.93;;;;;;;;;;6279447;28;20222;-70
2024/01/02 03:50:34;;;;;;;4.30;2.60;;;;;;;;;;6306201;28;20188;-70
2024/01/02 03:53:35;;;;;;;3.70;2.63;;;;;;;;;;6287254;28;20198;-70
2024/01/02 03:56:36;;;;;;;3.43;2.53;;;;;;;;;;6283780;28;20228;-70
2024/01/02 03:59:37;;;;;;;3.03;2.60;;;;;;;;;;6291198;28;20237;-70
2024/01/02 04:02:38;;;;;;;4.83;2.30;;;;;;;;;;6285250;28;20215;-70
2024/01/02 04:05:39;;;;;;;2.80;2.00;;;;;;;;;;6274944;28;20192;-70
2024/01/02 04:08:41;;;;;;;5.33;2.20;;;;;;;;;;6278787;28;20196;-70
2024/01/02 04:11:42;;;;;;;2.87;2.57;;;;;;;;;;6280166;28;20193;-70
2024/01/02 04:14:43;;;;;;;3.10;2.60;;;;;;;;;;6283767;28;20200;-70
2024/01/02 04:17:44;;;;;;;3.37;2.37;;;;;;;;;;6287683;28;20195;-70
2024/01/02 04:20:45;;;;;;;4.00;2.93;;;;;;;;;;6284233;28;20215;-70
2024/01/02 04:23:46;;;;;;;3.53;2.63;;;;;;;;;;6283331;28;20188;-70
2024/01/02 04:26:47;;;;;;;5.67;3.20;;;;;;;;;;6285537;28;20208;-70
2024/01/02 04:29:48;;;;;;;5.10;3.10;;;;;;;;;;6285535;28;20193;-70
2024/01/02 04:32:49;;;;;;;3.67;3.33;;;;;;;;;;6269630;28;20284;-70
2024/01/02 04:35:50;;;;;;;5.80;3.33;;;;;;;;;;6304025;28;20188;-70
2024/01/02 04:38:52;;;;;;;4.23;3.10;;;;;;;;;;6282510;28;20272;-70
2024/01/02 04:41:53;;;;;;;5.97;3.13;;;;;;;;;;6280303;28;20346;-70
2024/01/02 04:44:54;;;;;;;3.37;2.90;;;;;;;;;;6287617;28;20256;-70
2024/01/02 04:47:55;;;;;;;3.90;3.07;;;;;;;;;;6269697;28;20196;-70
2024/01/02 04:50:56;;;;;;;5.07;3.10;;;;;;;;;;6282858;28;20193;-70
2024/01/02 04:53:57;;;;;;;5.07;2.83;;;;;;;;;;6281214;28;20188;-70
2024/01/02 04:56:58;;;;;;;5.77;3.07;;;;;;;;;;6285642;28;20243;-70
2024/01/02 04:59:59;;;;;;;3.97;3.30;;;;;;;;;;6281067;28;20199;-70
2024/01/02 05:03:01;;;;;;;5.40;2.83;;;;;;;;;;6282772;28;20227;-70
2024/01/02 05:06:02;;;;;;;3.50;2.87;;;;;;;;;;6285536;28;20258;-71
2024/01/02 05:09:03;;;;;;;3.50;3.10;;;;;;;;;;6294138;28;20341;-70
2024/01/02 05:12:04;;;;;;;7.00;3.03;;;;;;;;;;6278952;28;20279;-70
2024/01/02 05:15:06;;;;;;;2.67;2.40;;;;;;;;;;6279712;28;20208;-71
2024/01/02 05:18:07;;;;;;;3.40;2.70;;;;;;;;;;6283701;28;20193;-71
2024/01/02 05:21:08;;;;;;;7.03;2.70;;;;;;;;;;6306731;28;20208;-70
2024/01/02 05:24:09;;;;;;;6.20;2.70;;;;;;;;;;6284471;28;20275;-70
2024/01/02 05:27:10;;;;;;;3.80;2.80;;;;;;;;;;6288351;28;20480;-70
2024/01/02 05:30:11;;;;;;;3.80;2.93;;;;;;;;;;6288861;28;20279;-70
2024/01/02 05:33:12;;;;;;;2.73;2.43;;;;;;;;;;6291300;28;20196;-70
2024/01/02 05:36:13;;;;;;;3.23;2.60;;;;;;;;;;6282958;28;20200;-70
2024/01/02 05:39:14;;;;;;;4.13;2.87;;;;;;;;;;6290270;28;20200;-70
2024/01/02 05:42:15;;;;;;;6.13;2.97;;;;;;;;;;6284966;28;20221;-70
2024/01/02 05:45:16;;;;;;;5.13;3.17;;;;;;;;;;6287245;28;20231;-70
2024/01/02 05:48:18;;;;;;;4.37;3.20;;;;;;;;;;6279768;28;20216;-71
2024/01/02 05:51:19;;;;;;;3.63;3.00;;;;;;;;;;6306196;28;20192;-70
2024/01/02 05:54:20;;;;;;;3.03;2.73;;;;;;;;;;6304417;28;20195;-70
2024/01/02 05:57:21;;;;;;;5.47;3.80;;;;;;;;;;6261861;28;20237;-71
2024/01/02 06:00:22;;;;;;;3.40;3.07;;;;;;;;;;6248911;28;20202;-70
2024/01/02 06:03:23;;;;;;;4.53;3.67;;;;;;;;;;6246673;28;20197;-70
2024/01/02 06:06:24;;;;;;;5.33;3.53;;;;;;;;;;6250428;28;20198;-70
2024/01/02 06:09:25;;;;;;;5.07;3.30;;;;;;;;;;6239793;28;20212;-70
2024/01/02 06:12:26;;;;;;;5.60;4.00;;;;;;;;;;6244373;28;20197;-70
2024/01/02 06:15:27;;;;;;;9.17;4.43;;;;;;;;;;6253682;28;20266;-70
2024/01/02 06:18:28;;;;;;;4.37;3.87;;;;;;;;;;6253626;28;20212;-70
2024/01/02 06:21:29;;;;;;;7.20;4.70;;;;;;;;;;6241908;28;20220;-70
2024/01/02 06:24:30;;;;;;;5.33;4.63;;;;;;;;;;6254270;28;20243;-70
2024/01/02 06:27:31;;;;;;;6.10;5.00;;;;;;;;;;6241158;28;20201;-70
2024/01/02 06:30:32;;;;;;;7.93;4.70;;;;;;;;;;6243307;28;20182;-71
2024/01/02 06:33:33;;;;;;;9.30;4.47;;;;;;;;;;6249057;28;20191;-71
2024/01/02 06:36:34;;;;;;;7.67;4.50;;;;;;;;;;6246568;28;20210;-71
2024/01/02 06:39:35;;;;;;;5.87;4.43;;;;;;;;;;6255396;28;20276;-69
2024/01/02 06:42:36;;;;;;;8.67;4.53;;;;;;;;;;6268548;28;20243;-69
2024/01/02 06:45:37;;;;;;;7.03;4.23;;;;;;;;;;6256229;28;20206;-69
2024/01/02 06:48:39;;;;;;;4.73;3.83;;;;;;;;;;6255342;28;20194;-69
2024/01/02 06:51:40;;;;;;;6.63;4.20;;;;;;;;;;6254399;28;20202;-69
2024/01/02 06:54:41;;;;;;;4.90;3.80;;;;;;;;;;6262278;28;20268;-69
2024/01/02 06:57:42;;;;;;;5.93;3.67;;;;;;;;;;6273300;28;20365;-69
2024/01/02 07:00:43;;;;;;;4.23;3.67;;;;;;;;;;6283915;28;20277;-69
2024/01/02 07:03:44;;;;;;;5.70;3.87;;;;;;;;;;6287593;28;20218;-69
2024/01/02 07:06:45;;;;;;;7.17;4.30;;;;;;;;;;6283593;28;20196;-69
2024/01/02 07:09:46;;;;;;;5.93;3.77;;;;;;;;;;6285304;28;20203;-69
2024/01/02 07:12:49;;;;;;;5.47;3.90;;;;;;;;;;6285635;28;20203;-69
2024/01/02 07:15:51;;;;;;;8.63;4.13;;;;;;;;;;6296133;28;20195;-69
2024/01/02 07:18:52;;;;;;;6.23;3.90;;;;;;;;;;6287991;28;20193;-69
2024/01/02 07:21:53;;;;;;;9.10;4.47;;;;;;;;;;6274500;28;20220;-69
2024/01/02 07:24:54;;;;;;;7.97;4.23;;;;;;;;;;6286045;28;20188;-69
2024/01/02 07:27:55;;;;;;;5.20;3.57;;;;;;;;;;6296587;28;20204;-69
2024/01/02 07:30:56;;;;;;;5.43;4.43;;;;;;;;;;6279925;28;20197;-69
2024/01/02 07:33:57;;;;;;;5.90;3.93;;;;;;;;;;6295072;28;20232;-69
2024/01/02 07:36:59;;;;;;;4.33;3.90;;;;;;;;;;6292557;28;20287;-69
2024/01/02 07:40:00;;;;;;;6.32;4.97;;;;;;;;;;6285001;28;20745;-69
2024/01/02 07:43:01;;;;;;;4.83;4.00;;;;;;;;;;6289331;28;20220;-69
2024/01/02 07:46:03;;;;;;;5.20;4.00;;;;;;;;;;6286617;28;20249;-69
2024/01/02 07:49:04;;;;;;;5.57;4.07;;;;;;;;;;6289262;28;20185;-69
2024/01/02 07:52:05;;;;;;;4.93;3.73;;;;;;;;;;6273212;28;20258;-69
2024/01/02 07:55:09;;;;;;;8.20;4.13;;;;;;;;;;6274859;28;20643;-69
2024/01/02 07:58:10;;;;;;;13.90;6.10;;;;;;;;;;6298474;28;20335;-69
2024/01/02 08:01:11;;;;;;;26.53;16.50;;;;;;;;;;6279933;28;20216;-69
2024/01/02 08:04:12;;;;;;;30.17;18.50;;;;;;;;;;6278688;28;20283;-69
2024/01/02 08:07:13;;;;;;;25.60;16.60;;;;;;;;;;6273250;28;20220;-67
2024/01/02 08:10:14;;;;;;;24.57;14.73;;;;;;;;;;6283701;28;20198;-69
2024/01/02 08:13:15;;;;;;;21.30;13.77;;;;;;;;;;6271755;28;20193;-69
2024/01/02 08:16:16;;;;;;;19.73;13.10;;;;;;;;;;6262761;28;20253;-69
2024/01/02 08:19:17;;;;;;;17.70;13.20;;;;;;;;;;6277446;28;20215;-69
2024/01/02 08:22:19;;;;;;;20.37;15.40;;;;;;;;;;6285528;28;20212;-69
2024/01/02 08:25:23;;;;;;;15.07;11.80;;;;;;;;;;6283964;28;20644;-69
2024/01/02 08:28:24;;;;;;;14.83;11.40;;;;;;;;;;6269291;28;20216;-69
2024/01/02 08:31:25;;;;;;;12.63;9.43;;;;;;;;;;6265363;28;20236;-69
2024/01/02 08:34:26;;;;;;;6.20;5.30;;;;;;;;;;6275133;28;20189;-69
2024/01/02 08:37:28;;;;;;;7.50;5.87;;;;;;;;;;6289754;28;20262;-70
2024/01/02 08:40:29;;;;;;;10.90;7.10;;;;;;;;;;6273844;28;20204;-69
2024/01/02 08:43:30;;;;;;;8.77;6.00;;;;;;;;;;6272364;28;20192;-69
2024/01/02 08:46:31;;;;;;;7.77;5.17;;;;;;;;;;6270289;28;20213;-65
2024/01/02 08:49:32;;;;;;;6.70;4.70;;;;;;;;;;6263886;28;21553;-66
2024/01/02 08:52:35;;;;;;;6.93;5.30;;;;;;;;;;6280330;28;20208;-68
2024/01/02 08:55:36;;;;;;;7.73;5.97;;;;;;;;;;6274663;28;20211;-69
2024/01/02 08:58:37;;;;;;;5.87;5.20;;;;;;;;;;6286901;28;20240;-69
2024/01/02 09:01:38;;;;;;;6.63;5.73;;;0.30;99.00;;;;;;6286861;28;20220;-69
2024/01/02 09:04:39;;;;;;;6.70;6.00;;;2.70;94.50;;;;;;6266068;28;20195;-67
2024/01/02 09:07:39;;;;;;;6.70;5.93;;;2.70;94.60;;;;;;6265228;28;20192;-68
2024/01/02 09:10:40;;;;;;;7.23;5.27;;;2.70;95.10;;;;;;6266623;28;20197;-68
2024/01/02 09:13:41;;;;;;;7.63;5.67;;;2.80;95.00;;;;;;6242502;28;20193;-69
2024/01/02 09:16:43;;;;;;;7.37;6.10;;;2.70;95.10;;;;;;6269936;28;20193;-69
2024/01/02 09:19:45;;;;;;;6.77;5.40;;;2.80;95.40;;;;;;6266602;28;20284;-69
2024/01/02 09:22:46;;;;;;;6.70;5.83;;;2.80;94.90;;;;;;6274369;28;20218;-71
2024/01/02 09:25:49;;;;;;;6.27;5.67;;;2.80;94.70;;;;;;6260402;28;20213;-70
2024/01/02 09:28:50;;;;;;;6.77;5.87;;;2.90;95.20;;;;;;6304302;28;20182;-70
2024/01/02 09:31:51;;;;;;;8.07;6.17;;;2.90;95.30;;;;;;6253589;28;20228;-70
2024/01/02 09:34:52;;;;;;;8.93;5.40;;;2.90;93.70;;;;;;6275861;28;20284;-70
2024/01/02 09:37:53;;;;;;;7.07;5.20;;;2.90;93.30;;;;;;6281742;28;20247;-71
2024/01/02 09:41:51;;;;;;;6.37;5.23;;;3.00;93.20;;;;;;6283058;28;20224;-72
2024/01/02 09:45:10;;;;;;;7.50;5.07;;;3.10;93.30;;;;;;6201379;28;20183;-71
2024/01/02 09:48:33;;;;;;;8.00;5.27;;;3.30;92.70;;;;;;6225820;28;20188;-71
2024/01/02 09:51:53;;;;;;;6.97;5.60;;;3.30;91.30;;;;;;6281560;28;20197;-71
2024/01/02 09:55:36;;;;;;;7.53;5.53;;;3.30;91.40;;;;;;6278442;28;20212;-71
2024/01/02 09:58:57;;;;;;;5.73;5.20;;;3.30;89.00;;;;;;6284450;28;20230;-71
2024/01/02 10:02:04;;;;;;;5.87;5.07;;;3.30;90.90;;;;;;6283301;28;20209;-71
2024/01/02 10:05:43;;;;;;;6.07;5.30;;;3.30;90.50;;;;;;6296783;28;20194;-71
2024/01/02 10:08:52;;;;;;;6.23;5.03;;;24.00;50.00;;;;;;6274085;28;20198;-70
2024/01/02 10:12:08;;;;;;;6.67;4.73;;;3.50;90.90;;;;;;6289334;28;20194;-71
2024/01/02 10:15:31;;;;;;;5.57;4.87;;;3.50;90.70;;;;;;6290019;28;20202;-71
2024/01/02 10:18:43;;;;;;;6.70;5.77;;;3.60;89.80;;;;;;6280769;28;20182;-71
2024/01/02 10:21:58;;;;;;;6.60;5.67;;;3.70;90.80;;;;;;6284070;28;20305;-71
2024/01/02 10:25:10;;;;;;;7.93;6.40;;;3.80;89.60;;;;;;6294486;28;20255;-71
2024/01/02 10:28:18;;;;;;;9.47;7.23;;;3.90;90.80;;;;;;6286145;28;20209;-71
2024/01/02 10:31:36;;;;;;;8.93;6.47;;;3.90;89.30;;;;;;6295680;28;20204;-71
2024/01/02 10:34:45;;;;;;;7.77;6.80;;;3.80;88.70;;;;;;6290390;28;20558;-71
2024/01/02 10:38:09;;;;;;;9.67;6.70;;;3.90;89.70;;;;;;6300427;28;20199;-72
2024/01/02 10:41:26;;;;;;;8.70;6.57;;;3.90;88.10;;;;;;6276466;28;20222;-71
2024/01/02 10:44:27;;;;;;;9.33;6.60;;;3.90;88.50;;;;;;6284167;28;20283;-71
2024/01/02 10:47:57;;;;;;;7.63;6.30;;;4.00;89.50;;;;;;6296696;28;20196;-71
2024/01/02 10:51:03;;;;;;;10.47;7.27;;;4.00;88.20;;;;;;6290932;28;20197;-71
2024/01/02 10:54:07;;;;;;;9.27;7.27;;;4.00;86.10;;;;;;6293988;28;20648;-70
2024/01/02 10:57:18;;;;;;;9.30;7.57;;;4.00;87.00;;;;;;6292532;28;20234;-69
2024/01/02 11:00:23;;;;;;;11.20;8.37;;;4.00;86.30;;;;;;6294156;28;20197;-71
2024/01/02 11:03:27;;;;;;;11.17;7.90;;;4.00;87.20;;;;;;6288937;28;20319;-69
2024/01/02 11:06:47;;;;;;;9.63;6.73;;;4.10;88.50;;;;;;6290713;28;20186;-71
2024/01/02 11:10:09;;;;;;;9.00;6.70;;;4.20;89.00;;;;;;6281384;28;20185;-71
2024/01/02 11:13:13;;;;;;;8.27;6.67;;;4.40;87.40;;;;;;6295004;28;20194;-71
2024/01/02 11:16:17;;;;;;;7.03;5.70;;;4.40;86.90;;;;;;6274862;28;20256;-71
2024/01/02 11:19:27;;;;;;;7.10;5.20;;;4.50;88.90;;;;;;6274381;28;20202;-71
2024/01/02 11:22:41;;;;;;;8.63;5.90;;;4.50;88.40;;;;;;6290144;28;20224;-71
2024/01/02 11:26:01;;;;;;;6.27;5.20;;;4.50;87.50;;;;;;6290334;28;20196;-71
2024/01/02 11:29:03;;;;;;;8.60;6.23;;;4.30;88.50;;;;;;6286762;28;20649;-70
2024/01/02 11:32:18;;;;;;;8.17;6.20;;;4.20;88.50;;;;;;6289201;28;20217;-68
2024/01/02 11:35:19;;;;;;;8.30;6.27;;;4.10;86.60;;;;;;6296112;28;20202;-68
2024/01/02 11:38:26;;;;;;;8.30;6.07;;;4.00;89.20;;;;;;6270372;28;20283;-69
2024/01/02 11:41:35;;;;;;;7.73;5.90;;;4.00;89.40;;;;;;6296573;28;20258;-68
2024/01/02 11:44:54;;;;;;;10.53;6.37;;;4.00;88.50;;;;;;6277083;28;20191;-68
2024/01/02 11:48:23;;;;;;;8.60;6.27;;;4.10;91.20;;;;;;6296078;28;20248;-69
2024/01/02 11:51:28;;;;;;;6.73;6.03;;;4.20;89.10;;;;;;6291654;28;20197;-69
2024/01/02 11:54:39;;;;;;;6.70;5.90;;;4.30;88.40;;;;;;6276587;28;20185;-68
2024/01/02 11:57:51;;;;;;;9.50;6.20;;;4.50;89.00;;;;;;6279243;28;20276;-69
2024/01/02 12:01:00;;;;;;;8.70;6.63;;;4.50;88.70;;;;;;6248930;28;20667;-69
2024/01/02 12:04:36;;;;;;;5.87;5.23;;;4.50;87.60;;;;;;6268865;28;20190;-69
2024/01/02 12:07:41;;;;;;;5.87;5.27;;;4.50;88.60;;;;;;6238547;28;20217;-69
2024/01/02 12:10:49;;;;;;;4.40;3.90;;;4.50;88.00;;;;;;6270694;28;20273;-69
2024/01/02 12:14:37;;;;;;;5.43;4.17;;;4.60;85.80;;;;;;6253921;28;20195;-69
2024/01/02 12:17:59;;;;;;;6.70;4.60;;;4.70;86.50;;;;;;6253586;28;20230;-71
2024/01/02 12:21:10;;;;;;;4.80;4.03;;;4.70;87.40;;;;;;6266870;28;20214;-70
2024/01/02 12:24:16;;;;;;;4.97;4.47;;;4.90;86.30;;;;;;6275914;28;20438;-68
2024/01/02 12:27:23;;;;;;;6.23;4.73;;;5.00;88.20;;;;;;6238292;28;20205;-71
2024/01/02 12:30:36;;;;;;;4.77;4.33;;;5.10;85.00;;;;;;6248805;28;20195;-64
2024/01/02 12:33:44;;;;;;;4.63;3.90;;;5.10;84.70;;;;;;6271011;28;20186;-65
2024/01/02 12:36:48;;;;;;;9.90;4.67;;;5.30;86.00;;;;;;6280897;28;20210;-66
2024/01/02 12:39:52;;;;;;;5.47;3.83;;;5.30;82.80;;;;;;6261739;28;20209;-66
2024/01/02 12:42:55;;;;;;;4.53;4.00;;;5.30;83.00;;;;;;6247708;28;20217;-67
2024/01/02 12:46:02;;;;;;;7.40;4.67;;;5.30;82.60;;;;;;6260039;28;20187;-69
2024/01/02 12:49:07;;;;;;;5.80;4.53;;;5.30;85.10;;;;;;6244434;28;20190;-69
2024/01/02 12:52:18;;;;;;;4.97;4.20;;;5.50;83.00;;;;;;6265096;28;20190;-69
2024/01/02 12:55:21;;;;;;;4.70;3.83;;;5.50;85.90;;;;;;6256603;28;20211;-67
2024/01/02 12:58:22;;;;;;;4.77;3.97;;;5.60;84.20;;;;;;6270842;28;20282;-66
2024/01/02 13:01:23;;;;;;;6.03;4.93;;;5.70;83.70;;;;;;6257842;28;20246;-67
2024/01/02 13:04:25;;;;;;;6.40;4.63;;;5.70;80.30;;;;;;6266892;28;20189;-67
2024/01/02 13:07:26;;;;;;;4.83;4.13;;;5.70;82.40;;;;;;6286836;28;20739;-66
2024/01/02 13:10:27;;;;;;;4.80;3.80;;;5.70;82.70;;;;;;6270708;28;20186;-66
2024/01/02 13:13:28;;;;;;;6.70;3.70;;;5.80;84.20;;;;;;6271037;28;20205;-66
2024/01/02 13:16:29;;;;;;;5.83;3.80;;;5.80;82.00;;;;;;6244167;28;20667;-66
2024/01/02 13:19:30;;;;;;;5.43;3.87;;;5.80;78.20;;;;;;6273917;28;20239;-66
2024/01/02 13:22:31;;;;;;;5.70;4.43;;;5.70;82.00;;;;;;6286667;28;20266;-66
2024/01/02 13:25:39;;;;;;;7.00;5.53;;;5.70;81.40;;;;;;6273426;28;20185;-66
2024/01/02 13:28:40;;;;;;;7.07;5.77;;;5.60;78.70;;;;;;6288663;28;20182;-66
2024/01/02 13:31:43;;;;;;;7.50;5.80;;;5.50;82.40;;;;;;6246583;28;20662;-66
2024/01/02 13:34:44;;;;;;;8.57;5.97;;;5.50;82.20;;;;;;6275146;28;20259;-66
2024/01/02 13:37:46;;;;;;;7.27;6.47;;;5.50;84.70;;;;;;6292762;28;20192;-66
2024/01/02 13:40:47;;;;;;;9.80;7.17;;;5.50;83.00;;;;;;6271753;28;20285;-66
2024/01/02 13:43:49;;;;;;;9.13;6.90;;;5.30;81.80;;;;;;6270841;28;20193;-66
2024/01/02 13:46:49;;;;;;;9.27;7.10;;;5.30;84.00;;;;;;6298198;28;20190;-66
2024/01/02 13:49:52;;;;;;;8.23;6.30;;;5.30;86.00;;;;;;6292965;28;20231;-66
2024/01/02 13:53:01;;;;;;;7.47;6.23;;;5.30;84.70;;;;;;6279999;28;20665;-66
2024/01/02 13:56:05;;;;;;;7.40;5.70;;;5.40;84.10;;;;;;6282021;28;20345;-66
2024/01/02 13:59:11;;;;;;;7.20;5.73;;;5.40;84.60;;;;;;6282094;28;20205;-66
2024/01/02 14:02:14;;;;;;;8.63;6.03;;;5.40;84.70;;;;;;6298687;28;20222;-66
2024/01/02 14:05:27;;;;;;;7.10;5.30;;;5.40;81.40;;;;;;6282870;28;20203;-66
2024/01/02 14:08:30;;;;;;;4.90;4.50;;;5.40;83.20;;;;;;6302663;28;20224;-66
2024/01/02 14:11:31;;;;;;;4.60;4.20;;;5.40;83.20;;;;;;6270022;28;20206;-66
2024/01/02 14:14:46;;;;;;;5.03;4.50;;;5.50;85.60;;;;;;6287046;28;20196;-66
2024/01/02 14:18:09;;;;;;;6.13;4.93;;;5.50;82.50;;;;;;6302597;28;20194;-66
2024/01/02 14:21:09;;;;;;;6.17;4.03;;;5.30;81.70;;;;;;6290179;28;20351;-66
2024/01/02 14:24:19;;;;;;;5.63;4.23;;;5.20;82.30;;;;;;6303789;28;20192;-66
2024/01/02 14:27:28;;;;;;;6.47;5.57;;;5.20;84.70;;;;;;6291910;28;20190;-66
2024/01/02 14:30:41;;;;;;;5.57;4.40;;;5.10;85.40;;;;;;6299804;28;20255;-66
2024/01/02 14:34:00;;;;;;;6.33;4.60;;;5.10;85.50;;;;;;6287000;28;20241;-76
2024/01/02 14:37:31;;;;;;;4.30;3.90;;;5.00;85.60;;;;;;6304943;28;20189;-75
2024/01/02 14:41:09;;;;;;;4.90;4.13;;;5.00;85.70;;;;;;6297240;28;20240;-72
2024/01/02 14:44:47;;;;;;;6.03;4.97;;;5.00;85.90;;;;;;6265970;28;20201;-74
2024/01/02 14:48:15;;;;;;;6.33;4.60;;;4.90;86.70;;;;;;6314503;28;20181;-74
2024/01/02 14:51:43;;;;;;;5.83;5.03;;;4.90;86.80;;;;;;6304242;28;20192;-66
2024/01/02 14:55:07;;;;;;;6.47;5.17;;;4.70;85.80;;;;;;6298632;28;20181;-66
2024/01/02 14:58:44;;;;;;;5.53;4.63;;;4.70;86.50;;;;;;6301016;28;20233;-66
2024/01/02 15:02:26;;;;;;;5.33;4.47;;;4.60;85.80;;;;;;6311215;28;20206;-66
2024/01/02 15:05:49;;;;;;;5.80;4.63;;;4.50;87.60;;;;;;6236543;28;20274;-67
2024/01/02 15:09:12;;;;;;;5.67;5.00;;;4.50;87.80;;;;;;6300489;28;20181;-66
2024/01/02 15:12:15;;;;;;;7.93;5.07;;;4.40;87.30;;;;;;6302975;28;20195;-66
2024/01/02 15:15:28;;;;;;;5.50;4.67;;;4.30;86.90;;;;;;6300245;28;20200;-66
2024/01/02 15:19:11;;;;;;;6.90;4.67;;;4.20;88.20;;;;;;6293964;28;20638;-66
2024/01/02 15:22:49;;;;;;;6.23;4.90;;;4.20;88.70;;;;;;6313396;28;20267;-65
2024/01/02 15:26:12;;;;;;;4.87;3.83;;;4.10;89.20;;;;;;6299873;28;20177;-66
2024/01/02 15:29:15;;;;;;;6.40;5.03;;;4.00;89.20;;;;;;6316240;28;20181;-66
2024/01/02 15:32:17;;;;;;;6.27;4.97;;;4.00;89.50;;;;;;6292976;28;20222;-66
2024/01/02 15:35:25;;;;;;;10.27;5.87;;;4.00;90.00;;;;;;6280327;28;20188;-66
2024/01/02 15:38:29;;;;;;;7.37;5.90;;;3.90;89.00;;;;;;6289136;28;20196;-66
2024/01/02 15:41:33;;;;;;;8.53;5.40;;;3.90;89.60;;;;;;6299229;28;20208;-65
2024/01/02 15:44:59;;;;;;;7.47;5.20;;;3.90;89.50;;;;;;6290893;28;20229;-64
2024/01/02 15:48:20;;;;;;;6.10;4.90;;;3.70;89.80;;;;;;6303096;28;20185;-65
2024/01/02 15:51:27;;;;;;;6.27;4.90;;;3.70;90.30;;;;;;6303740;28;20276;-65
2024/01/02 15:54:30;;;;;;;5.93;4.67;;;3.70;89.90;;;;;;6313885;28;20200;-65
2024/01/02 15:57:35;;;;;;;8.53;5.50;;;3.70;90.50;;;;;;6288126;28;20377;-65
2024/01/02 16:00:38;;;;;;;6.10;4.50;;;3.60;91.00;;;;;;6304280;28;20184;-65
2024/01/02 16:04:16;;;;;;;7.33;5.33;;;3.60;91.00;;;;;;6302117;28;20211;-65
2024/01/02 16:07:52;;;;;;;6.20;4.83;;;3.60;91.50;;;;;;6307202;28;20184;-64
2024/01/02 16:10:53;;;;;;;6.13;4.77;;;3.50;90.50;;;;;;6253279;28;20182;-64
2024/01/02 16:13:54;;;;;;;6.87;5.60;;;3.50;91.00;;;;;;6299929;28;20179;-64
2024/01/02 16:17:06;;;;;;;6.07;5.07;;;3.50;91.90;;;;;;6294487;28;20245;-64
2024/01/02 16:20:26;;;;;;;6.20;5.03;;;3.50;91.40;;;;;;6296107;28;20193;-64
2024/01/02 16:24:00;;;;;;;7.50;5.20;;;3.50;90.70;;;;;;6311971;28;20605;-64
2024/01/02 16:27:10;;;;;;;7.93;5.47;;;3.50;90.80;;;;;;6310140;28;20184;-64
2024/01/02 16:30:54;;;;;;;6.13;4.60;;;3.50;91.00;;;;;;6300177;28;20189;-64
2024/01/02 16:34:23;;;;;;;7.57;5.17;;;3.50;90.80;;;;;;6286031;28;20185;-64
2024/01/02 16:37:33;;;;;;;7.13;5.00;;;3.50;90.80;;;;;;6302640;28;20184;-64
2024/01/02 16:40:55;;;;;;;7.10;5.97;;;3.50;91.50;;;;;;6300940;28;20185;-64
2024/01/02 16:43:56;;;;;;;6.33;5.17;;;3.50;90.90;;;;;;6281342;28;20193;-68
2024/01/02 16:47:01;;;;;;;5.67;4.60;;;3.50;90.40;;;;;;6285830;28;20222;-67
2024/01/02 16:50:02;;;;;;;6.20;4.50;;;3.50;90.50;;;;;;6299105;28;20216;-66
2024/01/02 16:53:04;;;;;;;6.43;4.60;;;3.40;91.20;;;;;;6279946;28;20245;-67
2024/01/02 16:56:06;;;;;;;7.90;5.93;;;3.50;91.50;;;;;;6295141;28;20189;-69
2024/01/02 16:59:07;;;;;;;7.13;6.13;;;3.50;91.20;;;;;;6302782;28;20208;-68
2024/01/02 17:02:18;;;;;;;8.73;7.07;;;3.50;91.40;;;;;;6277042;28;20240;-67